Wiggins, Mississippi
Current Conditions -  °F | °C
As of 5:53 PM on Saturday 20 Dec 2014 (Local Time) from KHBG Reporting Station
Overcast Overcast  
Wind Chill: 52°   Ceiling: 1800
Heat Index: 52°   Visibility: 10mi
Dew Point: 46°   Wind: 7mph
Humidity: 80%   Direction: 30°NNE
Pressure: 30.17"   Gusts: NA
Location:  30.86°N, 89.14°W
Report Text: KHBG 202353Z AUTO 03006KT 10SM OVC018 11/08 A3017 RMK AO2 SLP216 T01110078 10117 20100 53009
Loading
Personal Weather Stations






























Interactive Weather Map New forecast layout! Learn more

10-Day Weather Forecast

Advertisements
Track Severe Weather on mobile